createdAt,value
2023-01-15T00:00:31.776Z,8.10
2023-01-15T00:01:36.795Z,8.10
2023-01-15T00:02:39.012Z,8.10
2023-01-15T00:03:42.394Z,8.10
2023-01-15T00:04:56.653Z,8.10
2023-01-15T00:06:03.108Z,8.10
2023-01-15T00:07:06.299Z,8.10
2023-01-15T00:08:08.685Z,8.10
2023-01-15T00:09:15.956Z,8.00
2023-01-15T00:10:18.412Z,7.90
2023-01-15T00:11:22.640Z,7.80
2023-01-15T00:12:24.920Z,7.80
2023-01-15T00:13:29.044Z,7.70
2023-01-15T00:14:32.340Z,7.70
2023-01-15T00:15:34.698Z,7.70
2023-01-15T00:16:40.312Z,7.70
2023-01-15T00:17:42.392Z,7.60
2023-01-15T00:18:50.315Z,7.60
2023-01-15T00:19:53.866Z,7.60
2023-01-15T00:21:00.852Z,7.50
2023-01-15T00:22:03.022Z,7.50
2023-01-15T00:23:06.145Z,7.50
2023-01-15T00:24:28.346Z,7.50
2023-01-15T00:25:48.903Z,7.40
2023-01-15T00:27:09.345Z,7.50
2023-01-15T00:28:14.887Z,7.50
2023-01-15T00:29:21.808Z,7.60
2023-01-15T00:30:25.434Z,7.60
2023-01-15T00:31:27.860Z,7.60
2023-01-15T00:32:31.076Z,7.60
2023-01-15T00:33:33.293Z,7.70
2023-01-15T00:34:36.950Z,7.70
2023-01-15T00:35:40.516Z,7.70
2023-01-15T00:36:43.831Z,7.70
2023-01-15T00:37:47.067Z,7.70
2023-01-15T00:38:49.272Z,7.70
2023-01-15T00:39:52.433Z,7.70
2023-01-15T00:40:54.690Z,7.80
2023-01-15T00:41:58.231Z,7.70
2023-01-15T00:43:00.468Z,7.70
2023-01-15T00:44:03.705Z,7.70
2023-01-15T00:45:10.445Z,7.70
2023-01-15T00:46:13.215Z,7.70
2023-01-15T00:47:16.448Z,7.60
2023-01-15T00:48:18.585Z,7.60
2023-01-15T00:49:23.224Z,7.60
2023-01-15T00:50:25.359Z,7.60
2023-01-15T00:51:30.067Z,7.50
2023-01-15T00:52:32.378Z,7.50
2023-01-15T00:53:35.824Z,7.50
2023-01-15T00:54:38.207Z,7.50
2023-01-15T00:55:41.464Z,7.50
2023-01-15T00:56:43.625Z,7.50
2023-01-15T00:57:46.893Z,7.50
2023-01-15T00:58:49.573Z,7.60
2023-01-15T00:59:52.745Z,7.60
2023-01-15T01:00:55.517Z,7.60
2023-01-15T01:01:58.905Z,7.60
2023-01-15T01:03:01.286Z,7.60
2023-01-15T01:04:05.686Z,7.60
2023-01-15T01:05:10.534Z,7.50
2023-01-15T01:06:13.733Z,7.50
2023-01-15T01:07:18.452Z,7.50
2023-01-15T01:08:21.926Z,7.50
2023-01-15T01:09:24.139Z,7.50
2023-01-15T01:10:27.470Z,7.40
2023-01-15T01:11:34.056Z,7.40
2023-01-15T01:12:38.093Z,7.40
2023-01-15T01:13:40.567Z,7.40
2023-01-15T01:14:44.883Z,7.40
2023-01-15T01:15:47.003Z,7.40
2023-01-15T01:16:50.227Z,7.40
2023-01-15T01:17:52.538Z,7.40
2023-01-15T01:18:55.775Z,7.30
2023-01-15T01:19:58.912Z,7.30
2023-01-15T01:21:05.176Z,7.20
2023-01-15T01:22:08.313Z,7.20
2023-01-15T01:23:11.902Z,7.20
2023-01-15T01:24:16.728Z,7.20
2023-01-15T01:25:19.544Z,7.20
2023-01-15T01:26:22.870Z,7.30
2023-01-15T01:27:25.075Z,7.30
2023-01-15T01:28:28.390Z,7.30
2023-01-15T01:29:31.511Z,7.30
2023-01-15T01:30:33.597Z,7.30
2023-01-15T01:31:37.094Z,7.40
2023-01-15T01:32:39.345Z,7.40
2023-01-15T01:33:42.646Z,7.30
2023-01-15T01:34:44.823Z,7.40
2023-01-15T01:35:50.015Z,7.40
2023-01-15T01:36:52.201Z,7.40
2023-01-15T01:37:55.376Z,7.50
2023-01-15T01:38:59.956Z,7.50
2023-01-15T01:40:03.266Z,7.50
2023-01-15T01:41:05.708Z,7.50
2023-01-15T01:42:13.154Z,7.50
2023-01-15T01:43:20.564Z,7.50
2023-01-15T01:45:02.873Z,7.60
2023-01-15T01:46:06.370Z,7.60
2023-01-15T01:47:11.512Z,7.60
2023-01-15T01:48:17.012Z,7.70
2023-01-15T01:49:19.320Z,7.60
2023-01-15T01:50:23.193Z,7.60
2023-01-15T01:51:35.835Z,7.50
2023-01-15T01:52:44.736Z,7.50
2023-01-15T01:53:47.650Z,7.50
2023-01-15T01:54:53.891Z,7.50
2023-01-15T01:55:59.903Z,7.50
2023-01-15T01:57:03.175Z,7.50
2023-01-15T01:58:10.989Z,7.40
2023-01-15T01:59:13.458Z,7.40
2023-01-15T02:00:17.282Z,7.40
2023-01-15T02:01:20.772Z,7.40
2023-01-15T02:02:24.345Z,7.40
2023-01-15T02:03:33.320Z,7.40
2023-01-15T02:04:37.760Z,7.40
2023-01-15T02:05:45.171Z,7.40
2023-01-15T02:06:47.545Z,7.40
2023-01-15T02:07:51.506Z,7.40
2023-01-15T02:08:54.589Z,7.40
2023-01-15T02:09:59.237Z,7.50
2023-01-15T02:11:02.425Z,7.50
2023-01-15T02:12:15.930Z,7.50
2023-01-15T02:13:26.064Z,7.50
2023-01-15T02:14:37.332Z,7.50
2023-01-15T02:15:46.086Z,7.50
2023-01-15T02:16:58.073Z,7.50
2023-01-15T02:18:08.963Z,7.60
2023-01-15T02:19:23.958Z,7.50
2023-01-15T02:20:32.455Z,7.60
2023-01-15T02:21:48.678Z,7.60
2023-01-15T02:23:01.970Z,7.60
2023-01-15T02:24:12.000Z,7.60
2023-01-15T02:25:26.909Z,7.60
2023-01-15T02:27:05.169Z,7.60
2023-01-15T02:28:16.421Z,7.40
2023-01-15T02:29:26.512Z,7.40
2023-01-15T02:30:33.950Z,7.40
2023-01-15T02:31:39.573Z,7.40
2023-01-15T02:32:47.426Z,7.40
2023-01-15T02:33:57.172Z,7.40
2023-01-15T02:35:07.276Z,7.30
2023-01-15T02:36:13.117Z,7.30
2023-01-15T02:37:21.580Z,7.30
2023-01-15T02:38:27.129Z,7.30
2023-01-15T02:39:32.988Z,7.30
2023-01-15T02:40:36.450Z,7.40
2023-01-15T02:41:44.272Z,7.40
2023-01-15T02:42:50.067Z,7.30
2023-01-15T02:43:57.984Z,7.30
2023-01-15T02:45:05.938Z,7.30
2023-01-15T02:46:09.449Z,7.40
2023-01-15T02:47:14.277Z,7.30
2023-01-15T02:48:19.746Z,7.30
2023-01-15T02:49:24.451Z,7.30
2023-01-15T02:50:31.307Z,7.30
2023-01-15T02:51:40.744Z,7.30
2023-01-15T02:52:48.618Z,7.40
2023-01-15T02:54:00.126Z,7.40
2023-01-15T02:55:09.272Z,7.40
2023-01-15T02:56:19.817Z,7.30
2023-01-15T02:57:30.587Z,7.40
2023-01-15T02:58:39.179Z,7.30
2023-01-15T02:59:48.728Z,7.40
2023-01-15T03:00:55.932Z,7.40
2023-01-15T03:02:04.474Z,7.40
2023-01-15T03:03:12.742Z,7.40
2023-01-15T03:04:23.776Z,7.50
2023-01-15T03:05:28.853Z,7.50
2023-01-15T03:06:37.988Z,7.50
2023-01-15T03:07:44.998Z,7.50
2023-01-15T03:08:50.849Z,7.50
2023-01-15T03:09:55.653Z,7.40
2023-01-15T03:11:07.867Z,7.40
2023-01-15T03:12:17.623Z,7.50
2023-01-15T03:13:31.002Z,7.50
2023-01-15T03:14:38.810Z,7.50
2023-01-15T03:16:06.854Z,7.50
2023-01-15T03:17:18.308Z,7.40
2023-01-15T03:18:22.962Z,7.40
2023-01-15T03:19:30.622Z,7.40
2023-01-15T03:20:42.940Z,7.50
2023-01-15T03:21:51.845Z,7.50
2023-01-15T03:23:00.740Z,7.50
2023-01-15T03:24:07.964Z,7.50
2023-01-15T03:25:14.035Z,7.50
2023-01-15T03:26:23.282Z,7.50
2023-01-15T03:27:26.165Z,7.50
2023-01-15T03:28:36.944Z,7.50
2023-01-15T03:29:46.530Z,7.60
2023-01-15T03:30:49.407Z,7.60
2023-01-15T03:31:53.520Z,7.60
2023-01-15T03:32:57.450Z,7.60
2023-01-15T03:34:00.571Z,7.60
2023-01-15T03:35:06.981Z,7.60
2023-01-15T03:36:14.977Z,7.70
2023-01-15T03:37:26.253Z,7.70
2023-01-15T03:38:32.838Z,7.70
2023-01-15T03:39:37.452Z,7.70
2023-01-15T03:41:00.457Z,7.70
2023-01-15T03:42:20.932Z,7.70
2023-01-15T03:43:42.282Z,7.70
2023-01-15T03:44:56.323Z,7.70
2023-01-15T03:46:02.106Z,7.70
2023-01-15T03:47:14.147Z,7.70
2023-01-15T03:48:25.929Z,7.60
2023-01-15T03:49:45.932Z,7.60
2023-01-15T03:51:01.055Z,7.60
2023-01-15T03:52:14.967Z,7.60
2023-01-15T03:53:21.559Z,7.70
2023-01-15T03:54:45.066Z,7.60
2023-01-15T03:55:55.656Z,7.60
2023-01-15T03:57:06.187Z,7.60
2023-01-15T03:58:14.856Z,7.60
2023-01-15T03:59:23.875Z,7.50
2023-01-15T04:00:38.250Z,7.50
2023-01-15T04:01:45.516Z,7.60
2023-01-15T04:02:49.724Z,7.60
2023-01-15T04:03:54.667Z,7.60
2023-01-15T04:05:02.089Z,7.60
2023-01-15T04:06:05.904Z,7.60
2023-01-15T04:07:11.428Z,7.50
2023-01-15T04:08:17.992Z,7.50
2023-01-15T04:09:24.393Z,7.50
2023-01-15T04:10:30.103Z,7.60
2023-01-15T04:11:34.673Z,7.60
2023-01-15T04:12:40.659Z,7.60
2023-01-15T04:13:47.444Z,7.70
2023-01-15T04:15:04.818Z,7.70
2023-01-15T04:16:10.037Z,7.70
2023-01-15T04:17:13.906Z,7.70
2023-01-15T04:18:16.932Z,7.70
2023-01-15T04:19:20.327Z,7.70
2023-01-15T04:20:31.903Z,7.70
2023-01-15T04:21:35.094Z,7.70
2023-01-15T04:22:38.851Z,7.80
2023-01-15T04:23:41.360Z,7.80
2023-01-15T04:24:45.238Z,7.80
2023-01-15T04:25:47.784Z,7.80
2023-01-15T04:26:51.125Z,7.80
2023-01-15T04:27:55.629Z,7.80
2023-01-15T04:28:58.034Z,7.80
2023-01-15T04:30:01.567Z,7.70
2023-01-15T04:31:04.131Z,7.80
2023-01-15T04:32:09.420Z,7.80
2023-01-15T04:33:12.039Z,7.80
2023-01-15T04:34:15.340Z,7.80
2023-01-15T04:35:17.969Z,7.80
2023-01-15T04:36:21.642Z,7.80
2023-01-15T04:37:24.090Z,7.80
2023-01-15T04:38:27.755Z,7.80
2023-01-15T04:39:31.382Z,7.80
2023-01-15T04:40:52.491Z,7.80
2023-01-15T04:42:13.297Z,7.80
2023-01-15T04:43:34.269Z,7.80
2023-01-15T04:44:38.544Z,7.80
2023-01-15T04:45:40.920Z,7.80
2023-01-15T04:46:45.839Z,7.80
2023-01-15T04:47:49.716Z,7.80
2023-01-15T04:48:53.355Z,7.90
2023-01-15T04:49:56.886Z,7.90
2023-01-15T04:51:03.505Z,7.80
2023-01-15T04:52:07.490Z,7.80
2023-01-15T04:53:09.659Z,7.80
2023-01-15T04:54:15.855Z,7.80
2023-01-15T04:55:18.056Z,7.80
2023-01-15T04:56:21.823Z,7.80
2023-01-15T04:57:24.252Z,7.80
2023-01-15T04:58:27.492Z,7.80
2023-01-15T04:59:30.801Z,7.80
2023-01-15T05:00:33.238Z,7.80
2023-01-15T05:01:37.518Z,7.80
2023-01-15T05:02:39.797Z,7.80
2023-01-15T05:03:45.187Z,7.80
2023-01-15T05:04:48.085Z,7.80
2023-01-15T05:05:51.547Z,7.80
2023-01-15T05:06:53.722Z,7.80
2023-01-15T05:07:57.294Z,7.80
2023-01-15T05:09:00.126Z,7.80
2023-01-15T05:10:03.467Z,7.80
2023-01-15T05:11:07.349Z,7.80
2023-01-15T05:12:10.823Z,7.80
2023-01-15T05:13:14.161Z,7.80
2023-01-15T05:14:17.658Z,7.80
2023-01-15T05:15:20.030Z,7.80
2023-01-15T05:16:26.218Z,7.80
2023-01-15T05:17:28.413Z,7.80
2023-01-15T05:18:31.931Z,7.80
2023-01-15T05:19:37.186Z,7.80
2023-01-15T05:20:39.641Z,7.80
2023-01-15T05:21:45.064Z,7.80
2023-01-15T05:22:47.501Z,7.80
2023-01-15T05:23:52.447Z,7.80
2023-01-15T05:24:55.888Z,7.80
2023-01-15T05:25:58.466Z,7.80
2023-01-15T05:27:02.065Z,7.80
2023-01-15T05:28:04.698Z,7.80
2023-01-15T05:29:08.266Z,7.80
2023-01-15T05:30:12.005Z,7.70
2023-01-15T05:31:17.098Z,7.70
2023-01-15T05:32:19.360Z,7.60
2023-01-15T05:33:22.636Z,7.60
2023-01-15T05:34:25.748Z,7.60
2023-01-15T05:35:29.618Z,7.60
2023-01-15T05:36:33.775Z,7.70
2023-01-15T05:37:36.164Z,7.70
2023-01-15T05:38:39.147Z,7.70
2023-01-15T05:39:42.513Z,7.70
2023-01-15T05:40:44.808Z,7.70
2023-01-15T05:41:49.636Z,7.70
2023-01-15T05:42:53.298Z,7.70
2023-01-15T05:43:56.150Z,7.70
2023-01-15T05:44:59.527Z,7.70
2023-01-15T05:46:02.447Z,7.70
2023-01-15T05:47:07.785Z,7.70
2023-01-15T05:48:10.047Z,7.70
2023-01-15T05:49:15.331Z,7.70
2023-01-15T05:50:18.268Z,7.80
2023-01-15T05:51:24.969Z,7.70
2023-01-15T05:52:27.143Z,7.70
2023-01-15T05:53:34.775Z,7.70
2023-01-15T05:54:37.383Z,7.80
2023-01-15T05:55:40.681Z,7.80
2023-01-15T05:56:43.648Z,7.80
2023-01-15T05:57:46.828Z,7.80
2023-01-15T05:58:49.119Z,7.80
2023-01-15T05:59:53.681Z,7.80
2023-01-15T06:00:56.103Z,7.90
2023-01-15T06:01:59.595Z,7.90
2023-01-15T06:03:02.077Z,7.90
2023-01-15T06:04:06.991Z,7.90
2023-01-15T06:05:09.841Z,7.90
2023-01-15T06:06:15.768Z,7.90
2023-01-15T06:07:20.497Z,7.90
2023-01-15T06:08:23.701Z,7.80
2023-01-15T06:09:28.394Z,7.90
2023-01-15T06:10:30.592Z,7.90
2023-01-15T06:11:34.172Z,7.90
2023-01-15T06:12:36.642Z,7.90
2023-01-15T06:13:40.943Z,7.90
2023-01-15T06:14:44.886Z,8.00
2023-01-15T06:15:47.575Z,8.00
2023-01-15T06:16:50.832Z,8.00
2023-01-15T06:17:53.265Z,8.00
2023-01-15T06:18:58.148Z,8.00
2023-01-15T06:20:01.569Z,8.00
2023-01-15T06:21:04.896Z,8.10
2023-01-15T06:22:09.659Z,8.10
2023-01-15T06:23:14.682Z,8.10
2023-01-15T06:24:18.414Z,8.10
2023-01-15T06:25:20.595Z,8.10
2023-01-15T06:26:24.182Z,8.10
2023-01-15T06:27:26.324Z,8.10
2023-01-15T06:28:30.119Z,8.10
2023-01-15T06:29:32.373Z,8.10
2023-01-15T06:30:39.381Z,8.10
2023-01-15T06:31:41.713Z,8.10
2023-01-15T06:32:45.003Z,8.10
2023-01-15T06:33:47.471Z,8.10
2023-01-15T06:34:51.720Z,8.10
2023-01-15T06:35:53.900Z,8.20
2023-01-15T06:36:57.481Z,8.20
2023-01-15T06:37:59.949Z,8.30
2023-01-15T06:39:05.518Z,8.30
2023-01-15T06:40:09.129Z,8.40
2023-01-15T06:41:29.241Z,8.40
2023-01-15T06:42:49.644Z,8.60
2023-01-15T06:44:10.551Z,8.80
2023-01-15T06:45:31.642Z,8.90
2023-01-15T06:46:52.389Z,9.20
2023-01-15T06:47:55.989Z,9.40
2023-01-15T06:48:58.353Z,9.50
2023-01-15T06:50:02.125Z,9.70
2023-01-15T06:51:04.686Z,9.90
2023-01-15T06:52:08.541Z,10.10
2023-01-15T06:53:11.852Z,10.20
2023-01-15T06:54:16.339Z,10.30
2023-01-15T06:55:19.960Z,10.40
2023-01-15T06:56:22.192Z,10.40
2023-01-15T06:57:25.783Z,10.50
2023-01-15T06:58:28.169Z,10.60
2023-01-15T06:59:32.187Z,10.70
2023-01-15T07:00:35.707Z,10.70
2023-01-15T07:01:38.247Z,10.80
2023-01-15T07:02:42.545Z,10.90
2023-01-15T07:03:44.852Z,11.00
2023-01-15T07:04:49.178Z,11.10
2023-01-15T07:05:51.476Z,11.10
2023-01-15T07:06:54.911Z,11.10
2023-01-15T07:07:58.282Z,11.10
2023-01-15T07:09:01.881Z,11.10
2023-01-15T07:10:07.653Z,11.10
2023-01-15T07:11:10.261Z,11.10
2023-01-15T07:12:14.639Z,11.10
2023-01-15T07:13:16.880Z,11.10
2023-01-15T07:14:22.027Z,11.10
2023-01-15T07:15:24.250Z,11.10
2023-01-15T07:16:30.262Z,11.10
2023-01-15T07:17:33.515Z,11.20
2023-01-15T07:18:35.638Z,11.10
2023-01-15T07:19:39.183Z,11.10
2023-01-15T07:20:41.735Z,11.10
2023-01-15T07:21:45.505Z,11.10
2023-01-15T07:22:50.906Z,11.20
2023-01-15T07:23:53.816Z,11.20
2023-01-15T07:24:57.336Z,11.20
2023-01-15T07:26:01.310Z,11.20
2023-01-15T07:27:05.394Z,11.20
2023-01-15T07:28:07.993Z,11.20
2023-01-15T07:29:11.610Z,11.20
2023-01-15T07:30:14.779Z,11.20
2023-01-15T07:31:18.850Z,11.20
2023-01-15T07:32:22.491Z,11.20
2023-01-15T07:33:25.074Z,11.30
2023-01-15T07:34:28.216Z,11.30
2023-01-15T07:35:31.121Z,11.30
2023-01-15T07:36:34.753Z,11.30
2023-01-15T07:37:40.300Z,11.30
2023-01-15T07:38:42.707Z,11.30
2023-01-15T07:39:46.269Z,11.30
2023-01-15T07:41:08.565Z,11.30
2023-01-15T07:42:30.584Z,11.30
2023-01-15T07:43:51.421Z,11.30
2023-01-15T07:45:23.655Z,11.30
2023-01-15T07:46:45.005Z,11.30
2023-01-15T07:48:10.915Z,11.30
2023-01-15T07:49:32.218Z,11.40
2023-01-15T07:50:35.686Z,11.40
2023-01-15T07:51:38.052Z,11.40
2023-01-15T07:52:41.607Z,11.40
2023-01-15T07:53:43.879Z,11.40
2023-01-15T07:54:48.941Z,11.40
2023-01-15T07:55:51.173Z,11.40
2023-01-15T07:56:55.399Z,11.50
2023-01-15T07:58:00.197Z,11.50
2023-01-15T07:59:02.410Z,11.50
2023-01-15T08:00:06.834Z,11.50
2023-01-15T08:01:14.320Z,11.50
2023-01-15T08:02:17.823Z,11.60
2023-01-15T08:03:21.604Z,11.50
2023-01-15T08:04:24.027Z,11.60
2023-01-15T08:05:27.525Z,11.60
2023-01-15T08:06:29.682Z,11.60
2023-01-15T08:07:37.959Z,11.50
2023-01-15T08:08:40.180Z,11.50
2023-01-15T08:09:44.261Z,11.50
2023-01-15T08:11:01.353Z,11.50
2023-01-15T08:12:22.742Z,11.40
2023-01-15T08:13:45.261Z,11.50
2023-01-15T08:15:06.255Z,11.50
2023-01-15T08:16:11.540Z,11.50
2023-01-15T08:17:13.867Z,11.60
2023-01-15T08:18:17.246Z,11.60
2023-01-15T08:19:19.513Z,11.60
2023-01-15T08:20:25.702Z,11.70
2023-01-15T08:21:27.909Z,11.70
2023-01-15T08:22:31.029Z,11.70
2023-01-15T08:23:34.824Z,11.70
2023-01-15T08:24:37.049Z,11.70
2023-01-15T08:25:40.413Z,11.70
2023-01-15T08:26:42.796Z,11.70
2023-01-15T08:27:46.823Z,11.70
2023-01-15T08:28:50.534Z,11.70
2023-01-15T08:29:54.184Z,11.70
2023-01-15T08:30:56.332Z,11.70
2023-01-15T08:32:02.587Z,11.70
2023-01-15T08:33:06.965Z,11.60
2023-01-15T08:34:09.693Z,11.60
2023-01-15T08:35:14.351Z,11.60
2023-01-15T08:36:18.316Z,11.60
2023-01-15T08:37:23.237Z,11.60
2023-01-15T08:38:27.715Z,11.70
2023-01-15T08:39:30.310Z,11.60
2023-01-15T08:42:05.181Z,11.60
2023-01-15T08:43:07.416Z,11.60
2023-01-15T08:44:13.658Z,11.60
2023-01-15T08:45:16.441Z,11.50
2023-01-15T08:46:19.967Z,11.50
2023-01-15T08:47:22.181Z,11.60
2023-01-15T08:48:25.729Z,11.60
2023-01-15T08:49:29.623Z,11.60
2023-01-15T08:50:32.979Z,11.60
2023-01-15T08:51:35.373Z,11.60
2023-01-15T08:52:39.500Z,11.60
2023-01-15T08:53:42.261Z,11.60
2023-01-15T08:54:45.929Z,11.60
2023-01-15T08:55:48.808Z,11.60
2023-01-15T08:56:52.512Z,11.70
2023-01-15T08:57:54.684Z,11.70
2023-01-15T08:58:57.847Z,11.70
2023-01-15T09:00:01.652Z,11.70
2023-01-15T09:01:06.285Z,11.70
2023-01-15T09:02:13.323Z,11.80
2023-01-15T09:03:16.852Z,11.80
2023-01-15T09:04:21.058Z,11.80
2023-01-15T09:05:24.411Z,11.80
2023-01-15T09:06:27.088Z,11.80
2023-01-15T09:07:30.478Z,11.90
2023-01-15T09:08:32.883Z,11.90
2023-01-15T09:09:36.391Z,11.80
2023-01-15T09:10:39.892Z,11.90
2023-01-15T09:11:42.799Z,11.90
2023-01-15T09:12:46.700Z,11.90
2023-01-15T09:13:50.639Z,11.90
2023-01-15T09:14:57.202Z,11.90
2023-01-15T09:16:06.576Z,11.90
2023-01-15T09:17:09.937Z,11.90
2023-01-15T09:18:15.221Z,11.90
2023-01-15T09:19:19.250Z,11.90
2023-01-15T09:20:25.492Z,11.90
2023-01-15T09:21:27.709Z,11.90
2023-01-15T09:22:31.536Z,11.90
2023-01-15T09:23:34.070Z,11.90
2023-01-15T09:24:38.449Z,12.00
2023-01-15T09:25:41.481Z,12.00
2023-01-15T09:26:44.911Z,12.00
2023-01-15T09:27:49.391Z,12.10
2023-01-15T09:28:52.598Z,12.20
2023-01-15T09:29:55.152Z,12.30
2023-01-15T09:30:58.647Z,12.40
2023-01-15T09:32:03.784Z,12.40
2023-01-15T09:33:08.547Z,12.50
2023-01-15T09:34:12.599Z,12.50
2023-01-15T09:35:15.813Z,12.60
2023-01-15T09:36:21.493Z,12.60
2023-01-15T09:37:25.120Z,12.70
2023-01-15T09:38:30.041Z,12.70
2023-01-15T09:39:33.878Z,12.70
2023-01-15T09:40:47.271Z,12.80
2023-01-15T09:42:08.796Z,12.80
2023-01-15T09:43:25.581Z,12.90
2023-01-15T09:44:36.901Z,12.90
2023-01-15T09:45:46.872Z,13.00
2023-01-15T09:47:02.708Z,13.00
2023-01-15T09:48:23.840Z,13.10
2023-01-15T09:49:37.958Z,13.20
2023-01-15T09:50:54.394Z,13.20
2023-01-15T09:52:06.390Z,13.20
2023-01-15T09:53:27.534Z,13.30
2023-01-15T09:54:44.253Z,13.30
2023-01-15T09:55:48.771Z,13.30
2023-01-15T09:56:52.954Z,13.40
2023-01-15T09:57:59.198Z,13.40
2023-01-15T09:59:07.552Z,13.50
2023-01-15T10:00:19.453Z,13.40
2023-01-15T10:01:26.404Z,13.40
2023-01-15T10:02:36.092Z,13.40
2023-01-15T10:03:46.624Z,13.40
2023-01-15T10:04:53.109Z,13.40
2023-01-15T10:06:02.876Z,13.40
2023-01-15T10:07:13.254Z,13.40
2023-01-15T10:08:21.692Z,13.40
2023-01-15T10:09:31.530Z,13.40
2023-01-15T10:10:49.599Z,13.30
2023-01-15T10:12:14.491Z,13.30
2023-01-15T10:13:23.812Z,13.30
2023-01-15T10:14:39.388Z,13.20
2023-01-15T10:15:46.142Z,13.10
2023-01-15T10:16:48.985Z,12.80
2023-01-15T10:17:54.935Z,12.60
2023-01-15T10:19:02.731Z,12.30
2023-01-15T10:20:06.410Z,11.90
2023-01-15T10:21:20.616Z,11.50
2023-01-15T10:22:35.480Z,11.00
2023-01-15T10:23:45.117Z,10.50
2023-01-15T10:24:54.916Z,10.20
2023-01-15T10:26:10.127Z,9.70
2023-01-15T10:27:19.431Z,9.30
2023-01-15T10:30:08.053Z,8.90
2023-01-15T10:31:20.529Z,8.60
2023-01-15T10:32:34.000Z,8.40
2023-01-15T10:33:54.265Z,8.30
2023-01-15T10:35:19.744Z,8.20
2023-01-15T10:36:27.452Z,8.20
2023-01-15T10:37:37.065Z,8.00
2023-01-15T10:38:49.296Z,7.90
2023-01-15T10:40:07.122Z,7.80
2023-01-15T10:41:37.830Z,7.70
2023-01-15T10:42:50.202Z,7.80
2023-01-15T10:43:58.761Z,7.80
2023-01-15T10:45:10.407Z,7.70
2023-01-15T10:46:15.884Z,7.60
2023-01-15T10:47:24.097Z,7.50
2023-01-15T10:48:33.820Z,7.50
2023-01-15T10:49:37.836Z,7.40
2023-01-15T10:50:42.809Z,7.40
2023-01-15T10:51:47.759Z,7.40
2023-01-15T10:52:57.110Z,7.40
2023-01-15T10:54:06.241Z,7.40
2023-01-15T10:55:20.984Z,7.40
2023-01-15T10:56:33.000Z,7.40
2023-01-15T10:57:44.718Z,7.30
2023-01-15T10:58:55.990Z,7.30
2023-01-15T11:00:00.869Z,7.30
2023-01-15T11:01:06.840Z,7.30
2023-01-15T11:02:24.007Z,7.30
2023-01-15T11:03:36.750Z,7.20
2023-01-15T11:04:39.036Z,7.20
2023-01-15T11:05:46.045Z,7.20
2023-01-15T11:06:49.941Z,7.20
2023-01-15T11:08:24.766Z,7.10
2023-01-15T11:09:22.497Z,7.10
2023-01-15T11:10:25.042Z,7.10
2023-01-15T11:11:55.898Z,7.10
2023-01-15T11:13:18.519Z,7.10
2023-01-15T11:14:38.952Z,7.10
2023-01-15T11:16:06.312Z,7.00
2023-01-15T11:17:32.947Z,7.00
2023-01-15T11:18:59.502Z,6.90
2023-01-15T11:20:03.637Z,6.90
2023-01-15T11:21:12.388Z,6.90
2023-01-15T11:22:18.661Z,6.90
2023-01-15T11:23:22.213Z,6.90
2023-01-15T11:24:25.638Z,6.90
2023-01-15T11:25:30.450Z,6.90
2023-01-15T11:26:35.809Z,6.90
2023-01-15T11:27:39.504Z,6.90
2023-01-15T11:28:46.418Z,7.00
2023-01-15T11:29:53.151Z,6.90
2023-01-15T11:30:56.641Z,6.90
2023-01-15T11:31:58.940Z,6.90
2023-01-15T11:33:05.171Z,6.70
2023-01-15T11:34:21.881Z,6.70
2023-01-15T11:35:31.814Z,6.60
2023-01-15T11:36:37.681Z,6.60
2023-01-15T11:37:40.106Z,6.70
2023-01-15T11:38:48.538Z,6.70
2023-01-15T11:39:55.214Z,6.70
2023-01-15T11:41:03.432Z,6.80
2023-01-15T11:42:35.411Z,6.80
2023-01-15T11:44:02.589Z,6.70
2023-01-15T11:45:32.815Z,6.60
2023-01-15T11:46:55.137Z,6.40
2023-01-15T11:48:15.914Z,6.30
2023-01-15T11:49:40.615Z,6.30
2023-01-15T11:50:53.652Z,6.20
2023-01-15T11:51:59.072Z,6.10
2023-01-15T11:53:02.374Z,6.00
2023-01-15T11:54:09.282Z,6.00
2023-01-15T11:55:12.970Z,6.00
2023-01-15T11:56:18.972Z,6.00
2023-01-15T11:57:28.085Z,6.10
2023-01-15T11:58:38.586Z,6.10
2023-01-15T11:59:49.511Z,6.20
2023-01-15T12:00:55.919Z,6.20
2023-01-15T12:02:04.467Z,6.20
2023-01-15T12:03:16.367Z,6.20
2023-01-15T12:04:39.121Z,6.20
2023-01-15T12:05:47.395Z,6.10
2023-01-15T12:06:52.171Z,6.10
2023-01-15T12:08:01.846Z,6.00
2023-01-15T12:09:15.560Z,6.00
2023-01-15T12:10:42.689Z,6.00
2023-01-15T12:11:59.387Z,6.00
2023-01-15T12:13:13.258Z,6.00
2023-01-15T12:14:40.301Z,5.90
2023-01-15T12:15:55.602Z,5.90
2023-01-15T12:17:03.597Z,5.90
2023-01-15T12:18:27.581Z,5.90
2023-01-15T12:19:36.909Z,5.90
2023-01-15T12:21:00.965Z,5.80
2023-01-15T12:22:36.121Z,5.80
2023-01-15T12:24:26.361Z,5.90
2023-01-15T12:25:46.660Z,5.80
2023-01-15T12:27:10.434Z,5.80
2023-01-15T12:28:36.603Z,5.90
2023-01-15T12:29:56.383Z,5.90
2023-01-15T12:31:04.136Z,5.80
2023-01-15T12:32:11.843Z,5.80
2023-01-15T12:33:21.800Z,5.80
2023-01-15T12:34:30.136Z,5.90
2023-01-15T12:35:42.497Z,5.70
2023-01-15T12:36:51.688Z,5.60
2023-01-15T12:37:57.141Z,5.60
2023-01-15T12:39:06.018Z,5.60
2023-01-15T12:40:22.175Z,5.60
2023-01-15T12:41:46.853Z,5.60
2023-01-15T12:43:10.891Z,5.60
2023-01-15T12:44:36.483Z,5.60
2023-01-15T12:45:44.756Z,5.60
2023-01-15T12:46:47.441Z,5.60
2023-01-15T12:47:58.280Z,5.70
2023-01-15T12:49:10.283Z,5.70
2023-01-15T12:50:36.705Z,5.60
2023-01-15T12:51:49.271Z,5.60
2023-01-15T12:52:59.205Z,5.60
2023-01-15T12:54:12.948Z,5.60
2023-01-15T12:55:20.522Z,5.70
2023-01-15T12:56:28.655Z,5.60
2023-01-15T12:57:35.359Z,5.70
2023-01-15T12:58:47.864Z,5.70
2023-01-15T12:59:59.146Z,5.70
2023-01-15T13:01:09.334Z,5.70
2023-01-15T13:02:20.394Z,5.70
2023-01-15T13:03:30.480Z,5.70
2023-01-15T13:04:41.332Z,5.80
2023-01-15T13:05:49.487Z,5.80
2023-01-15T13:06:58.671Z,5.80
2023-01-15T13:08:10.635Z,5.70
2023-01-15T13:09:25.659Z,5.80
2023-01-15T13:10:35.403Z,5.80
2023-01-15T13:11:39.105Z,5.80
2023-01-15T13:12:42.516Z,5.90
2023-01-15T13:13:58.379Z,5.90
2023-01-15T13:15:03.106Z,5.90
2023-01-15T13:16:20.111Z,5.90
2023-01-15T13:17:34.582Z,5.90
2023-01-15T13:18:48.314Z,5.90
2023-01-15T13:20:03.710Z,5.90
2023-01-15T13:21:12.751Z,6.00
2023-01-15T13:22:20.615Z,6.00
2023-01-15T13:23:41.620Z,6.00
2023-01-15T13:25:19.408Z,5.90
2023-01-15T13:26:55.666Z,5.90
2023-01-15T13:28:14.251Z,6.00
2023-01-15T13:29:25.536Z,6.00
2023-01-15T13:30:41.015Z,5.90
2023-01-15T13:32:01.837Z,5.80
2023-01-15T13:33:14.397Z,5.90
2023-01-15T13:34:26.156Z,5.90
2023-01-15T13:35:32.809Z,5.90
2023-01-15T13:36:41.691Z,5.90
2023-01-15T13:37:48.428Z,5.90
2023-01-15T13:38:54.633Z,5.90
2023-01-15T13:40:03.669Z,5.90
2023-01-15T13:41:09.392Z,5.90
2023-01-15T13:42:32.025Z,5.90
2023-01-15T13:43:39.171Z,5.90
2023-01-15T13:44:47.383Z,5.90
2023-01-15T13:45:51.907Z,5.90
2023-01-15T13:47:02.911Z,5.80
2023-01-15T13:48:09.830Z,5.70
2023-01-15T13:49:20.090Z,5.70
2023-01-15T13:50:30.124Z,5.70
2023-01-15T13:51:38.440Z,5.80
2023-01-15T13:52:41.686Z,5.70
2023-01-15T13:54:04.073Z,5.70
2023-01-15T13:55:14.667Z,5.70
2023-01-15T13:56:28.723Z,5.80
2023-01-15T13:57:37.295Z,5.70
2023-01-15T13:58:43.708Z,5.70
2023-01-15T13:59:45.980Z,5.70
2023-01-15T14:00:49.677Z,5.70
2023-01-15T14:01:53.116Z,5.60
2023-01-15T14:02:56.851Z,5.60
2023-01-15T14:04:06.421Z,5.60
2023-01-15T14:05:29.618Z,5.70
2023-01-15T14:06:42.378Z,5.60
2023-01-15T14:07:45.958Z,5.70
2023-01-15T14:08:49.483Z,5.60
2023-01-15T14:09:52.689Z,5.60
2023-01-15T14:10:56.427Z,5.60
2023-01-15T14:12:13.155Z,5.60
2023-01-15T14:13:42.638Z,5.60
2023-01-15T14:15:04.580Z,5.70
2023-01-15T14:16:18.058Z,5.70
2023-01-15T14:17:57.545Z,5.70
2023-01-15T14:19:16.618Z,5.70
2023-01-15T14:20:37.337Z,5.70
2023-01-15T14:21:48.984Z,5.70
2023-01-15T14:23:04.242Z,5.60
2023-01-15T14:24:30.413Z,5.60
2023-01-15T14:25:44.155Z,5.60
2023-01-15T14:26:58.479Z,5.50
2023-01-15T14:28:14.306Z,5.50
2023-01-15T14:29:51.000Z,5.50
2023-01-15T14:31:15.613Z,5.60
2023-01-15T14:32:28.805Z,5.50
2023-01-15T14:33:37.983Z,5.40
2023-01-15T14:34:42.022Z,5.40
2023-01-15T14:35:47.087Z,5.40
2023-01-15T14:37:00.020Z,5.30
2023-01-15T14:38:06.671Z,5.30
2023-01-15T14:39:26.578Z,5.20
2023-01-15T14:40:40.853Z,5.10
2023-01-15T14:41:58.751Z,5.10
2023-01-15T14:43:10.375Z,5.10
2023-01-15T14:44:14.030Z,5.10
2023-01-15T14:45:25.435Z,5.00
2023-01-15T14:46:34.103Z,5.00
2023-01-15T14:47:44.379Z,5.00
2023-01-15T14:48:47.482Z,4.80
2023-01-15T14:50:02.585Z,4.80
2023-01-15T14:51:11.250Z,4.70
2023-01-15T14:52:13.489Z,4.60
2023-01-15T14:53:29.355Z,4.60
2023-01-15T14:54:33.742Z,4.60
2023-01-15T14:55:41.274Z,4.60
2023-01-15T14:56:50.313Z,4.60
2023-01-15T14:57:58.972Z,4.50
2023-01-15T14:59:12.837Z,4.40
2023-01-15T15:00:18.833Z,4.40
2023-01-15T15:01:50.745Z,4.30